Flight Track Log - Related Links

Times and Time Zones

All times are in EDT time to prevent confusion due to time zone crossing. See the UAL4543 flight status page for this flight to view local times or setup timezone preferences in your user account.

Time Position Orientation Groundspeed Altitude Reporting Facility
EDT Latitude Longitude Course Direction KTS MPH feet Rate Location/Type
Fri 09:00:11 PM 40.6667 -74.1833 270° West 161 185 900  Level New York TRACON
Fri 09:01:11 PM 40.6500 -74.2333 246° West 213 245 2,500 1,900 Climbing New York TRACON
Fri 09:02:11 PM 40.6833 -74.3167 298° West 263 303 4,700 2,550 Climbing New York TRACON
Fri 09:03:00 PM 40.7605 -74.7039 284° West  Level Estimated
Fri 09:03:11 PM 40.7167 -74.4000 298° West 268 308 7,600  Level New York TRACON
Fri 09:04:00 PM 40.8289 -74.8084 287° West  Level FlightAware Approximate
Fri 09:04:12 PM 40.7333 -74.4833 285° West 274 315 10,000  Level New York TRACON
Fri 09:05:00 PM 40.8667 -74.9415 270° West  Level FlightAware Approximate
Fri 09:05:17 PM 40.7833 -74.6000 300° West 340 391 10,700  Level New York TRACON
Fri 09:06:31 PM 40.8475 -74.7267 304° West 363 418 13,000 1,733 Climbing New York Center
Fri 09:07:32 PM 40.9094 -74.8044 317° Northwest 349 402 14,600 1,623 Climbing New York Center
Fri 09:08:33 PM 40.9211 -74.9481 276° West 341 392 16,300 1,563 Climbing New York Center
Fri 09:09:31 PM 40.9225 -75.0797 271° West 357 411 17,700 1,322 Climbing New York Center
Fri 09:10:31 PM 40.9139 -75.2000 265° West 365 420 18,900 1,073 Climbing New York Center
Fri 09:11:34 PM 40.8839 -75.3353 254° West 373 429 19,900 1,091 Climbing New York Center
Fri 09:12:32 PM 40.8517 -75.4675 252° West 380 437 21,100 1,169 Climbing New York Center
Fri 09:13:32 PM 40.8169 -75.6050 252° West 385 443 22,200 1,091 Climbing New York Center
Fri 09:14:33 PM 40.7842 -75.7425 253° West 390 449 23,300 1,160 Climbing New York Center
Fri 09:15:31 PM 40.7508 -75.8853 253° West 400 460 24,500 1,160 Climbing New York Center
Fri 09:16:32 PM 40.7178 -76.0197 252° West 400 460 25,600 1,100 Climbing New York Center
Fri 09:17:31 PM 40.6847 -76.1569 252° West 395 455 26,700 1,140 Climbing New York Center
Fri 09:18:33 PM 40.6719 -76.2956 263° West 395 455 27,900 1,150 Climbing New York Center
Fri 09:19:31 PM 40.6928 -76.4286 282° West 375 432 29,000 1,160 Climbing New York Center
Fri 09:20:32 PM 40.7114 -76.5589 281° West 370 426 30,200 1,140 Climbing New York Center
Fri 09:21:32 PM 40.7319 -76.6919 282° West 370 426 31,300 1,150 Climbing New York Center
Fri 09:22:32 PM 40.7500 -76.8278 280° West 375 432 32,500 1,150 Climbing New York Center
Fri 09:23:32 PM 40.7708 -76.9531 282° West 370 426 33,600 1,091 Climbing New York Center
Fri 09:24:33 PM 40.7867 -77.0833 279° West 370 426 34,700 1,109 Climbing New York Center
Fri 09:25:31 PM 40.8053 -77.2056 281° West 353 406 35,800 655 Climbing New York Center
Fri 09:26:32 PM 40.8236 -77.3281 281° West 348 400 36,000 99 Climbing New York Center
Fri 09:27:32 PM 40.8450 -77.4672 282° West 348 400 36,000  Level New York Center
Fri 09:28:56 PM 40.8689 -77.6500 280° West 372 428 36,000  Level Cleveland Center
Fri 09:29:57 PM 40.8872 -77.7828 280° West 371 427 36,000  Level Cleveland Center
Fri 09:30:59 PM 40.9050 -77.9133 280° West 366 421 36,000  Level Cleveland Center
Fri 09:32:01 PM 40.9222 -78.0436 280° West 364 419 36,000  Level Cleveland Center
Fri 09:33:02 PM 40.9414 -78.1992 279° West 362 417 36,000  Level Cleveland Center
Fri 09:34:04 PM 40.9550 -78.3114 279° West 361 415 36,000  Level Cleveland Center
Fri 09:35:06 PM 40.9697 -78.4392 279° West 359 413 36,000  Level Cleveland Center
Fri 09:36:07 PM 40.9872 -78.5950 279° West 361 415 36,000  Level Cleveland Center
Fri 09:37:09 PM 41.0056 -78.7236 281° West 360 414 36,000  Level Cleveland Center
Fri 09:38:11 PM 41.0203 -78.8500 279° West 355 409 36,000  Level Cleveland Center
Fri 09:39:12 PM 41.0353 -78.9803 279° West 354 407 36,000  Level Cleveland Center
Fri 09:40:14 PM 41.0511 -79.1147 279° West 364 419 36,000  Level Cleveland Center
Fri 09:41:16 PM 41.0658 -79.2508 278° West 368 423 36,000  Level Cleveland Center
Fri 09:42:17 PM 41.0847 -79.4183 279° West 379 436 36,000  Level Cleveland Center
Fri 09:43:19 PM 41.0994 -79.5544 278° West 378 435 36,000  Level Cleveland Center
Fri 09:44:20 PM 41.1150 -79.6925 279° West 378 435 36,000  Level Cleveland Center
Fri 09:45:22 PM 41.1300 -79.8281 278° West 379 436 36,000  Level Cleveland Center
Fri 09:46:24 PM 41.1442 -79.9642 278° West 378 435 36,000  Level Cleveland Center
Fri 09:47:25 PM 41.1603 -80.1025 279° West 376 433 36,000  Level Cleveland Center
Fri 09:48:27 PM 41.1736 -80.2403 277° West 377 434 36,000  Level Cleveland Center
Fri 09:49:28 PM 41.1917 -80.4042 278° West 377 434 36,000  Level Cleveland Center
Fri 09:50:30 PM 41.2061 -80.5422 278° West 377 434 36,000  Level Cleveland Center
Fri 09:51:31 PM 41.2194 -80.6800 277° West 378 435 36,000  Level Cleveland Center
Fri 09:52:33 PM 41.2347 -80.8206 278° West 384 442 36,000  Level Cleveland Center
Fri 09:53:34 PM 41.2483 -80.9592 277° West 383 441 36,000  Level Cleveland Center
Fri 09:54:36 PM 41.2622 -81.0989 278° West 384 442 36,000  Level Cleveland Center
Fri 09:55:38 PM 41.2756 -81.2386 277° West 383 441 36,000  Level Cleveland Center
Fri 09:56:39 PM 41.2919 -81.4083 277° West 383 441 36,000  Level Cleveland Center
Fri 09:57:41 PM 41.3028 -81.5531 276° West 393 452 36,000  Level Cleveland Center
Fri 09:58:43 PM 41.3156 -81.6936 277° West 387 445 36,000  Level Cleveland Center
Fri 09:59:44 PM 41.3286 -81.8367 277° West 387 445 36,000  Level Cleveland Center
Fri 10:00:46 PM 41.3422 -81.9783 277° West 387 445 36,000  Level Cleveland Center
Fri 10:01:47 PM 41.3536 -82.1161 276° West 388 447 36,000  Level Cleveland Center
Fri 10:02:49 PM 41.3650 -82.2897 275° West 389 448 36,000  Level Cleveland Center
Fri 10:03:51 PM 41.3742 -82.4347 275° West 391 450 36,000  Level Cleveland Center
Fri 10:04:52 PM 41.3828 -82.5800 275° West 392 451 36,000  Level Cleveland Center
Fri 10:05:54 PM 41.3897 -82.7250 274° West 393 452 36,000  Level Cleveland Center
Fri 10:06:55 PM 41.3983 -82.8714 275° West 394 453 36,000  Level Cleveland Center
Fri 10:07:57 PM 41.4064 -83.0183 274° West 395 455 36,000  Level Cleveland Center
Fri 10:08:58 PM 41.4133 -83.1639 274° West 395 455 36,000  Level Cleveland Center
Fri 10:10:00 PM 41.4208 -83.3119 274° West 396 456 36,000  Level Cleveland Center
Fri 10:11:02 PM 41.4283 -83.4583 274° West 396 456 36,000  Level Cleveland Center
Fri 10:12:03 PM 41.4375 -83.6369 274° West 398 458 36,000  Level Cleveland Center
Fri 10:13:05 PM 41.4433 -83.7861 273° West 400 460 36,000  Level Cleveland Center
Fri 10:14:06 PM 41.4506 -83.9347 274° West 400 460 36,000  Level Cleveland Center
Fri 10:15:08 PM 41.4569 -84.0850 273° West 401 461 36,000  Level Cleveland Center
Fri 10:16:09 PM 41.4644 -84.2344 274° West 402 463 36,000  Level Cleveland Center
Fri 10:17:11 PM 41.4697 -84.3942 273° West 402 463 36,000  Level Cleveland Center
Fri 10:18:12 PM 41.4767 -84.5444 274° West 403 464 36,000  Level Cleveland Center
Fri 10:19:14 PM 41.4817 -84.6944 273° West 406 467 36,000  Level Cleveland Center
Fri 10:20:16 PM 41.4875 -84.8450 273° West 406 467 36,000  Level Cleveland Center
Fri 10:20:54 PM 41.4911 -84.9333 273° West 406 467 36,000  Level Chicago Center
Fri 10:21:55 PM 41.4961 -85.0850 273° West 406 467 36,000  Level Chicago Center
Fri 10:22:56 PM 41.5008 -85.2689 272° West 407 468 36,000  Level Chicago Center
Fri 10:23:58 PM 41.5025 -85.4269 271° West 413 475 36,000  Level Chicago Center
Fri 10:24:59 PM 41.5106 -85.5844 274° West 412 474 36,000  Level Chicago Center
Fri 10:26:00 PM 41.5156 -85.7364 273° West 404 465 36,000  Level Chicago Center
Fri 10:27:02 PM 41.5200 -85.8903 272° West 412 474 36,000  Level Chicago Center
Fri 10:28:03 PM 41.5247 -86.0439 272° West 413 475 36,000  Level Chicago Center
Fri 10:29:04 PM 41.5275 -86.1969 271° West 413 475 36,000  Level Chicago Center
Fri 10:30:06 PM 41.5297 -86.3508 271° West 416 479 36,000  Level Chicago Center
Fri 10:31:07 PM 41.5328 -86.5042 272° West 412 474 36,000  Level Chicago Center
Fri 10:32:08 PM 41.5342 -86.6586 271° West 415 478 36,000  Level Chicago Center
Fri 10:33:10 PM 41.5369 -86.8300 271° West 417 480 36,000  Level Chicago Center
Fri 10:34:11 PM 41.5386 -86.9847 271° West 417 480 36,000  Level Chicago Center
Fri 10:35:12 PM 41.5400 -87.1406 271° West 419 482 36,000  Level Chicago Center
Fri 10:36:13 PM 41.5417 -87.2942 271° West 415 478 36,000  Level Chicago Center
Fri 10:37:15 PM 41.5431 -87.4492 271° West 417 480 36,000  Level Chicago Center
Fri 10:38:16 PM 41.5447 -87.6025 271° West 417 480 36,000  Level Chicago Center
Fri 10:39:17 PM 41.5456 -87.7564 270° West 418 481 36,000  Level Chicago Center
Fri 10:40:18 PM 41.5464 -87.9417 270° West 419 482 36,000  Level Chicago Center
Fri 10:41:20 PM 41.5481 -88.0939 271° West 424 488 36,000  Level Chicago Center
Fri 10:42:21 PM 41.5469 -88.2467 269° West 423 487 36,000  Level Chicago Center
Fri 10:43:22 PM 41.5469 -88.4019 270° West 424 488 36,000  Level Chicago Center
Fri 10:44:23 PM 41.5478 -88.5567 270° West 422 486 36,000  Level Chicago Center
Fri 10:45:24 PM 41.5475 -88.7133 270° West 422 486 36,000  Level Chicago Center
Fri 10:46:26 PM 41.5475 -88.8994 270° West 421 484 36,000  Level Chicago Center
Fri 10:47:27 PM 41.5475 -89.0556 270° West 421 484 36,000  Level Chicago Center
Fri 10:48:28 PM 41.5481 -89.2108 270° West 421 484 36,000  Level Chicago Center
Fri 10:49:29 PM 41.5481 -89.3694 270° West 425 489 36,000  Level Chicago Center
Fri 10:50:30 PM 41.5483 -89.5261 270° West 424 488 36,000  Level Chicago Center
Fri 10:51:31 PM 41.5469 -89.6747 269° West 423 487 36,000  Level Chicago Center
Fri 10:52:32 PM 41.5467 -89.8306 270° West 423 487 36,000  Level Chicago Center
Fri 10:53:34 PM 41.5458 -89.9867 270° West 423 487 36,000  Level Chicago Center
Fri 10:54:35 PM 41.5444 -90.1750 269° West 423 487 36,000  Level Chicago Center
Fri 10:55:36 PM 41.5403 -90.3372 268° West 437 503 36,000  Level Chicago Center
Fri 10:56:37 PM 41.5389 -90.4950 269° West 434 499 36,000  Level Chicago Center
Fri 10:57:38 PM 41.5372 -90.6389 269° West 429 494 36,000  Level Chicago Center
Fri 10:58:39 PM 41.5347 -90.7992 269° West 430 495 36,000  Level Chicago Center
Fri 10:59:40 PM 41.5319 -90.9589 269° West 430 495 36,000 -295 Level Chicago Center
Fri 11:00:41 PM 41.5283 -91.1494 269° West 430 495 35,400 -787 Descending Chicago Center
Fri 11:01:42 PM 41.5253 -91.3083 269° West 430 495 34,400 -1,033 Descending Chicago Center
Fri 11:02:43 PM 41.5222 -91.4697 269° West 430 495 33,300 -1,024 Descending Chicago Center
Fri 11:03:45 PM 41.5189 -91.6317 268° West 434 499 32,300 -984 Descending Chicago Center
Fri 11:04:45 PM 41.5222 -91.7906 272° West 431 496 31,300 -1,041 Descending Chicago Center
Fri 11:05:46 PM 41.5242 -91.9508 271° West 432 497 30,200 -1,171 Descending Chicago Center
Fri 11:06:48 PM 41.5267 -92.1144 271° West 434 499 28,900 -2,683 Descending Chicago Center
Fri 11:07:49 PM 41.5281 -92.2747 271° West 434 499 24,700 -3,689 Descending Chicago Center
Fri 11:08:50 PM 41.5294 -92.4367 271° West 435 501 21,400 -3,197 Descending Chicago Center
Fri 11:09:51 PM 41.5306 -92.5958 271° West 422 486 18,200 -3,124 Descending Chicago Center
Fri 11:10:51 PM 41.5317 -92.7378 271° West 398 458 15,100 -3,074 Descending Chicago Center
Fri 11:11:52 PM 41.5314 -92.8786 270° West 380 437 12,000 -2,508 Descending Chicago Center
Fri 11:12:53 PM 41.5189 -93.0089 263° West 370 426 10,000 -984 Descending Chicago Center
Fri 11:13:54 PM 41.5014 -93.1556 261° West 347 399 10,000 -639 Level Chicago Center
Fri 11:14:55 PM 41.4889 -93.2486 260° West 281 323 8,700 -1,328 Descending Chicago Center
Fri 11:15:56 PM 41.4761 -93.3397 259° West 261 300 7,300 -1,131 Descending Chicago Center
Fri 11:16:57 PM 41.4631 -93.4269 259° West 250 288 6,400 -984 Descending Chicago Center
Fri 11:17:58 PM 41.4522 -93.5053 260° West 238 274 5,300 -1,131 Descending Chicago Center
Fri 11:18:59 PM 41.4425 -93.5772 260° West 222 255 4,100 -1,082 Descending Chicago Center
Fri 11:20:00 PM 41.4314 -93.6464 258° West 209 241 3,100 -836 Descending Chicago Center
Fri 11:21:01 PM 41.4422 -93.7053 284° West 197 227 2,400 -593 Descending Chicago Center
Fri 11:21:31 PM 41.4661 -93.7269 326° Northwest 171 197 2,200 -456 Descending Minneapolis Center
Fri 11:22:20 PM 41.5058 -93.7147 13° North 149 171 1,800 -492 Descending Minneapolis Center
Fri 11:22:32 PM 41.5053 -93.7119 105° East 156 180 1,700 -740 Descending Minneapolis Center
Fri 11:23:33 PM 41.5258 -93.6683 58° Northeast 144 166 900 -787 Descending Minneapolis Center

Login

Don't have an account? Register now (free) for customized features, flight alerts, and more!